Terminal Aerodrome Forecast
Issued by NWS Wilmington, OH

Current Version | Previous Version | Graphics & Text | Print | Product List | Glossary On
Versions: 1 2 3 4 5 6 7 8 9 10 11 12 13 14 15 16
000
FTUS41 KILN 011800 AAA
TAFCMH
TAF AMD
KCMH 011848Z 0119/0218 34005KT P6SM VCTS BKN060CB
     FM012100 14005KT P6SM VCSH BKN060
     FM020100 VRB04KT P6SM VCSH SCT060 BKN100
     FM021600 VRB04KT P6SM -SHRA VCTS BKN040CB=

USA.gov is the U.S. government's official web portal to all federal, state and local government web resources and services.